• Join FlightAware (Why Join?)
  • Login
  • US Flag 
10:12PM EDT


 

Airport Tracker/Info


-or-


 

Live Flight TrackerFlight Track Log ✈ THY2462 ✈ 04-May-2013 ✈ LTBA / IST - LTAF / ADA

Flight Track Log - Related Links

Times and Time Zones

All times are in EDT time to prevent confusion due to time zone crossing. See the THY2462 flight status page for this flight to view local times or setup timezone preferences in your user account.

Time Position Orientation Groundspeed Altitude Reporting Facility
EDT Latitude Longitude Course Direction KTS MPH feet Rate Location/Type
07:39AM 40.7218 29.2754 126° Southeast  Level Estimated
07:40AM 40.6578 29.3884 127° Southeast  Level Estimated
07:41AM 40.5937 29.5012 127° Southeast  Level Estimated
07:42AM 40.5294 29.6138 127° Southeast  Level Estimated
07:43AM 40.4650 29.7262 127° Southeast  Level Estimated
07:44AM 40.4005 29.8384 127° Southeast  Level Estimated
07:45AM 40.3359 29.9503 127° Southeast  Level Estimated
07:46AM 40.2713 30.0620 127° Southeast  Level Estimated
07:47AM 40.2065 30.1736 127° Southeast  Level Estimated
07:48AM 40.1415 30.2849 127° Southeast  Level Estimated
07:49AM 40.0765 30.3960 127° Southeast  Level Estimated
07:50AM 40.0114 30.5068 127° Southeast  Level Estimated
07:51AM 39.9462 30.6175 128° Southeast  Level Estimated
07:52AM 39.8809 30.7280 128° Southeast  Level Estimated
07:53AM 39.8154 30.8382 128° Southeast  Level Estimated
07:54AM 39.7499 30.9483 128° Southeast  Level Estimated
07:55AM 39.6842 31.0581 128° Southeast  Level Estimated
07:56AM 39.6185 31.1677 128° Southeast  Level Estimated
07:57AM 39.5526 31.2771 128° Southeast  Level Estimated
07:58AM 39.4867 31.3863 128° Southeast  Level Estimated
07:59AM 39.4206 31.4953 128° Southeast  Level Estimated
08:00AM 39.3545 31.6041 128° Southeast  Level Estimated
08:01AM 39.2882 31.7127 128° Southeast  Level Estimated
08:02AM 39.2219 31.8211 128° Southeast  Level Estimated
08:03AM 39.1554 31.9293 128° Southeast  Level Estimated
08:04AM 39.0888 32.0372 128° Southeast  Level Estimated
08:05AM 39.0222 32.1450 129° Southeast  Level Estimated
08:06AM 38.9554 32.2525 129° Southeast  Level Estimated
08:07AM 38.8886 32.3599 129° Southeast  Level Estimated
08:08AM 38.8216 32.4671 129° Southeast  Level Estimated
08:09AM 38.7546 32.5740 129° Southeast  Level Estimated
08:10AM 38.6874 32.6808 129° Southeast  Level Estimated
08:11AM 38.6202 32.7873 129° Southeast  Level Estimated
08:12AM 38.5528 32.8937 129° Southeast  Level Estimated
08:13AM 38.4854 32.9999 129° Southeast  Level Estimated
08:14AM 38.4179 33.1058 129° Southeast  Level Estimated
08:15AM 38.3502 33.2116 129° Southeast  Level Estimated
08:16AM 38.2825 33.3172 129° Southeast  Level Estimated
08:17AM 38.2147 33.4225 129° Southeast  Level Estimated
08:18AM 38.1468 33.5277 129° Southeast  Level Estimated
08:19AM 38.0788 33.6326 129° Southeast  Level Estimated
08:20AM 38.0107 33.7374 129° Southeast  Level Estimated
08:21AM 37.9425 33.8420 130° Southeast  Level Estimated
08:22AM 37.8742 33.9464 130° Southeast  Level Estimated
08:23AM 37.8058 34.0506 130° Southeast  Level Estimated
08:24AM 37.7374 34.1546 130° Southeast  Level Estimated
08:25AM 37.6688 34.2584 130° Southeast  Level Estimated
08:26AM 37.6002 34.3620 130° Southeast  Level Estimated
08:27AM 37.5314 34.4655 130° Southeast  Level Estimated
08:28AM 37.4626 34.5687 130° Southeast  Level Estimated
08:29AM 37.3937 34.6717 130° Southeast  Level Estimated
08:30AM 37.3246 34.7746 130° Southeast  Level Estimated
08:31AM 37.2556 34.8773 130° Southeast  Level Estimated
08:32AM 37.1864 34.9798 130° Southeast  Level Estimated
08:33AM 37.1171 35.0821 130° Southeast  Level Estimated
08:34AM 37.0477 35.1842 130° Southeast  Level Estimated
08:35AM 36.9822 35.2804 130° Southeast  Level Estimated
08:36AM 36.9822 35.2804 202° Southwest  Level Estimated
08:37AM 36.9822 35.2804 202° Southwest  Level Estimated
08:38AM 36.9822 35.2804 202° Southwest  Level Estimated
08:39AM 36.9822 35.2804 202° Southwest  Level Estimated
08:40AM 36.9822 35.2804 202° Southwest  Level Estimated
08:41AM 36.9822 35.2804 202° Southwest  Level Estimated
08:42AM 36.9822 35.2804 202° Southwest  Level Estimated
08:43AM 36.9822 35.2804 202° Southwest  Level Estimated
08:44AM 36.9822 35.2804 202° Southwest  Level Estimated
08:45AM 36.9822 35.2804 202° Southwest  Level Estimated
08:46AM 36.9822 35.2804 202° Southwest  Level Estimated
08:47AM 36.9822 35.2804 202° Southwest  Level Estimated
08:48AM 36.9822 35.2804 202° Southwest  Level Estimated
08:49AM 36.9822 35.2804 202° Southwest  Level Estimated
08:50AM 36.9822 35.2804 202° Southwest  Level Estimated
08:51AM 36.9822 35.2804 202° Southwest  Level Estimated